Wednesday, August 15, 2018, 12:47 AM EDT
Back to Local

KMGJ, Montgomery Orange Co Airport

Location: Montgomery, NY, United States Lat: 41.517
Local Time: 12:47 AM EDT ( 4:47 GMT) Lon: -74.267
Time Zone: US/Eastern Elev: 354 ft

Show me the last for .
Show Decoded

2018-08-14 23:54 METAR KMGJ 150354Z AUTO 23004KT 10SM CLR 20/19 A2984 RMK AO2 SLP103 T02000189 =
2018-08-14 22:54 METAR KMGJ 150254Z AUTO 23004KT 10SM CLR 19/18 A2984 RMK AO2 RAB04E14 SLP101
                 P0000 60000 T01940183 50005 =
2018-08-14 21:54 METAR KMGJ 150154Z AUTO 00000KT 10SM FEW100 19/19 A2984 RMK AO2 SLP103 T01940189
                 =
2018-08-14 20:54 METAR KMGJ 150054Z AUTO 00000KT 10SM CLR 20/19 A2983 RMK AO2 SLP100 T02000189 =
2018-08-14 19:54 METAR KMGJ 142354Z AUTO 22007KT 10SM FEW120 21/19 A2982 RMK AO2 SLP096 60006
                 T02110194 10256 20211 53004 =
2018-08-14 18:54 METAR KMGJ 142254Z AUTO 21007KT 10SM CLR 23/21 A2981 RMK AO2 SLP093 T02280206 =
2018-08-14 17:54 METAR KMGJ 142154Z AUTO 23006KT 10SM FEW042 SCT095 BKN110 24/21 A2980 RMK AO2
                 LTG DSNT SW RAB29E54 SLP089 P0001 T02440206 =
2018-08-14 16:54 METAR KMGJ 142054Z AUTO 24004KT 10SM FEW085 FEW110 24/21 A2981 RMK AO2 LTG DSNT
                 N AND E SLP092 60005 T02390211 55008 =
2018-08-14 15:54 METAR KMGJ 141954Z AUTO 19005KT 10SM CLR 24/21 A2981 RMK AO2 LTG DSNT E AND W
                 SLP091 T02440206 =
2018-08-14 15:02 METAR KMGJ 141902Z AUTO 20007KT 10SM FEW035 SCT048 BKN110 22/20 A2983 RMK AO2
                 LTG DSNT NE AND E T02220200 =
2018-08-14 14:54 METAR KMGJ 141854Z AUTO 19006KT 10SM VCTS FEW023 SCT035 BKN050 22/20 A2982 RMK
                 AO2 LTG DSNT NE-S RAB1755E04B17E53 TSB17E32 SLP097 P0005 T02170200 =
2018-08-14 14:38 METAR KMGJ 141838Z AUTO 17007KT 8SM VCTS -RA SCT024 BKN034 OVC060 22/20 A2983
                 RMK AO2 LTG DSNT E RAB1755E04B17 TSB17E32 P0005 T02220200 =
2018-08-14 14:23 METAR KMGJ 141823Z AUTO 16007KT 7SM -TSRA SCT026 BKN060 OVC110 22/19 A2984 RMK
                 AO2 LTG DSNT SE RAB1755E04B17 TSB17 P0003 T02220194 =
2018-08-14 14:11 METAR KMGJ 141811Z AUTO 15005KT 10SM VCTS FEW026 SCT060 BKN110 23/19 A2983 RMK
                 AO2 LTG DSNT NE AND S RAB1755E04 P0000 T02280194 =
2018-08-14 14:01 METAR KMGJ 141801Z AUTO 00000KT 10SM -RA FEW041 BKN085 OVC110 23/21 A2983 RMK
                 AO2 LTG DSNT ALQDS RAB1755 P0000 T02280206 =
2018-08-14 13:54 METAR KMGJ 141754Z AUTO 13003KT 10SM VCTS FEW038 SCT055 OVC100 22/20 A2983 RMK
                 AO2 LTG DSNT SW RAB28E49 SLP100 P0015 60015 T02220200 10272 20211 55008 =
2018-08-14 13:51 METAR KMGJ 141751Z AUTO 13004KT 10SM VCTS SCT038 BKN090 OVC110 22/19 A2983 RMK
                 AO2 LTG DSNT S AND SW RAB28E49 P0015 =
2018-08-14 13:44 METAR KMGJ 141744Z AUTO 17003KT 2SM VCTS -RA SCT033 BKN042 OVC110 22/19 A2983
                 RMK AO2 LTG DSNT S RAB28 P0015 T02220194 =
2018-08-14 13:34 METAR KMGJ 141734Z AUTO 22012KT 1 3/4SM +RA FEW030 BKN036 BKN055 23/20 A2984 RMK
                 AO2 LTG DSNT S RAB28 P0009 T02280200 =
2018-08-14 13:07 METAR KMGJ 141707Z AUTO 19006KT 10SM FEW030 SCT047 SCT085 27/21 A2983 RMK AO2
                 T02670211 =
2018-08-14 12:54 METAR KMGJ 141654Z AUTO 22005KT 10SM VCTS SCT030 BKN039 BKN047 26/21 A2984 RMK
                 AO2 SLP101 T02610206 =
2018-08-14 12:37 METAR KMGJ 141637Z AUTO 22006KT 10SM VCTS SCT030 BKN039 BKN050 26/20 A2984 RMK
                 AO2 LTG DSNT N T02610200 =
2018-08-14 11:54 METAR KMGJ 141554Z AUTO 19006KT 10SM FEW017 FEW021 SCT042 26/21 A2986 RMK AO2
                 LTG DSNT NW SLP108 T02610206 =
2018-08-14 11:04 METAR KMGJ 141504Z AUTO 23006KT 10SM SCT020 SCT031 BKN038 23/21 A2987 RMK AO2
                 T02330206 =
2018-08-14 10:54 METAR KMGJ 141454Z AUTO 24006KT 10SM SCT018 BKN025 OVC049 23/21 A2987 RMK AO2
                 SLP114 T02330206 58003 =
2018-08-14 10:22 METAR KMGJ 141422Z AUTO 14007KT 10SM FEW015 BKN021 BKN026 24/21 A2987 RMK AO2
                 T02440211 =
2018-08-14 09:54 METAR KMGJ 141354Z AUTO 19003KT 10SM FEW016 SCT024 BKN041 23/21 A2988 RMK AO2
                 SLP115 T02330211 =
2018-08-14 09:09 METAR KMGJ 141309Z AUTO 00000KT 10SM SCT008 BKN023 OVC032 23/21 A2988 RMK AO2
                 T02280206 =
2018-08-14 08:54 METAR KMGJ 141254Z AUTO 15003KT 10SM BKN008 BKN023 OVC033 22/21 A2988 RMK AO2
                 CIG 005V011 SLP116 T02220206 =
2018-08-14 08:49 METAR KMGJ 141249Z AUTO 00000KT 10SM BKN008 OVC033 22/21 A2988 RMK AO2 CIG
                 005V011 =
2018-08-14 08:31 METAR KMGJ 141231Z AUTO 17003KT 10SM FEW006 OVC032 22/21 A2988 RMK AO2 T02220206
                 =
2018-08-14 08:14 METAR KMGJ 141214Z AUTO 00000KT 10SM SCT014 OVC032 22/21 A2988 RMK AO2 T02170206
                 =
2018-08-14 07:54 METAR KMGJ 141154Z AUTO 00000KT 10SM OVC013 21/20 A2988 RMK AO2 RAB10E19B42E51
                 SLP117 P0000 60000 70118 T02110200 10211 20183 53006 =
2018-08-14 07:09 METAR KMGJ 141109Z AUTO 00000KT 10SM SCT006 OVC011 20/20 A2988 RMK AO2 T02000200
                 =
2018-08-14 06:54 METAR KMGJ 141054Z AUTO 00000KT 10SM BKN006 OVC013 20/19 A2988 RMK AO2 SLP116
                 T02000194 =
2018-08-14 06:29 METAR KMGJ 141029Z AUTO 00000KT 3SM BR OVC005 19/19 A2988 RMK AO2 CIG 002V007
                 T01890189 =
2018-08-14 06:27 METAR KMGJ 141027Z AUTO 00000KT 1 3/4SM BR OVC005 19/18 A2988 RMK AO2 VIS 1/2V5
                 CIG 002V007 T01890183 =
2018-08-14 06:19 METAR KMGJ 141019Z AUTO 00000KT 1/4SM FG BKN004 18/18 A2987 RMK AO2 CIG 002V007
                 T01830183 =
2018-08-14 06:12 METAR KMGJ 141012Z AUTO 00000KT 1SM BR BKN002 19/19 A2987 RMK AO2 VIS 1/4V5 CIG
                 002V007 T01890189 =
2018-08-14 06:09 METAR KMGJ 141009Z AUTO 00000KT 3SM BR SCT002 19/19 A2987 RMK AO2 T01940189 =
2018-08-14 05:54 METAR KMGJ 140954Z AUTO 00000KT 4SM BR FEW014 19/19 A2987 RMK AO2 SLP112
                 T01890189 =
2018-08-14 05:47 METAR KMGJ 140947Z AUTO 00000KT 1 3/4SM BR FEW014 19/19 A2987 RMK AO2 T01940189
                 =
2018-08-14 04:54 METAR KMGJ 140854Z AUTO 22003KT 10SM SCT014 20/19 A2986 RMK AO2 SLP110 T02000194
                 56006 =
2018-08-14 04:41 METAR KMGJ 140841Z AUTO 20003KT 10SM SCT010 20/19 A2986 RMK AO2 T02000194 =
2018-08-14 03:54 METAR KMGJ 140754Z AUTO 00000KT 10SM OVC012 21/21 A2986 RMK AO2 SLP110 T02110206
                 =
2018-08-14 03:04 METAR KMGJ 140704Z AUTO 21004KT 10SM OVC014 21/21 A2987 RMK AO2 T02110206 =
2018-08-14 02:54 METAR KMGJ 140654Z AUTO 22004KT 10SM OVC015 21/21 A2987 RMK AO2 SLP112 T02110206
                 =
2018-08-14 02:34 METAR KMGJ 140634Z AUTO 20008KT 9SM OVC014 21/21 A2988 RMK AO2 T02110206 =
2018-08-14 01:54 METAR KMGJ 140554Z AUTO 19006KT 10SM FEW006 OVC020 21/21 A2988 RMK AO2 SLP116
                 60022 T02110206 10217 20211 57007 =
2018-08-14 01:36 METAR KMGJ 140536Z AUTO 20005KT 10SM SCT006 OVC021 21/21 A2988 RMK AO2 T02110206
                 =
2018-08-14 00:54 METAR KMGJ 140454Z AUTO 00000KT 10SM BKN007 BKN010 OVC025 21/21 A2989 RMK AO2
                 RAB0355E27 CIG 004V008 SLP120 P0001 T02110206 402390211 =

Support USWX by starting your Amazon purchase here.